sensor_id;sensor_type;location;lat;lon;timestamp;P1;durP1;ratioP1;P2;durP2;ratioP2
10467;SDS011;5281;48.878;9.394;2024-02-28T00:00:13;20.07;;;14.30;;
10467;SDS011;5281;48.878;9.394;2024-02-28T00:02:41;16.73;;;13.10;;
10467;SDS011;5281;48.878;9.394;2024-02-28T00:05:08;18.63;;;13.43;;
10467;SDS011;5281;48.878;9.394;2024-02-28T00:07:35;18.70;;;14.40;;
10467;SDS011;5281;48.878;9.394;2024-02-28T00:10:02;16.57;;;13.40;;
10467;SDS011;5281;48.878;9.394;2024-02-28T00:12:29;19.83;;;14.67;;
10467;SDS011;5281;48.878;9.394;2024-02-28T00:14:56;20.53;;;14.73;;
10467;SDS011;5281;48.878;9.394;2024-02-28T00:17:25;21.40;;;14.30;;
10467;SDS011;5281;48.878;9.394;2024-02-28T00:19:51;18.60;;;13.73;;
10467;SDS011;5281;48.878;9.394;2024-02-28T00:22:18;18.47;;;14.27;;
10467;SDS011;5281;48.878;9.394;2024-02-28T00:24:45;20.33;;;14.97;;
10467;SDS011;5281;48.878;9.394;2024-02-28T00:27:12;20.13;;;14.13;;
10467;SDS011;5281;48.878;9.394;2024-02-28T00:29:39;19.10;;;14.83;;
10467;SDS011;5281;48.878;9.394;2024-02-28T00:32:06;20.27;;;15.33;;
10467;SDS011;5281;48.878;9.394;2024-02-28T00:34:34;20.90;;;14.60;;
10467;SDS011;5281;48.878;9.394;2024-02-28T00:37:00;22.40;;;15.43;;
10467;SDS011;5281;48.878;9.394;2024-02-28T00:39:27;21.20;;;15.70;;
10467;SDS011;5281;48.878;9.394;2024-02-28T00:41:53;18.93;;;14.47;;
10467;SDS011;5281;48.878;9.394;2024-02-28T00:44:20;20.97;;;15.17;;
10467;SDS011;5281;48.878;9.394;2024-02-28T00:46:47;20.83;;;15.33;;
10467;SDS011;5281;48.878;9.394;2024-02-28T00:49:13;20.80;;;15.43;;
10467;SDS011;5281;48.878;9.394;2024-02-28T00:51:41;22.00;;;16.03;;
10467;SDS011;5281;48.878;9.394;2024-02-28T00:54:08;20.90;;;15.87;;
10467;SDS011;5281;48.878;9.394;2024-02-28T00:56:35;19.97;;;15.50;;
10467;SDS011;5281;48.878;9.394;2024-02-28T00:59:02;22.67;;;15.20;;
10467;SDS011;5281;48.878;9.394;2024-02-28T01:01:28;20.67;;;15.00;;
10467;SDS011;5281;48.878;9.394;2024-02-28T01:03:55;20.53;;;15.10;;
10467;SDS011;5281;48.878;9.394;2024-02-28T01:06:22;18.53;;;14.63;;
10467;SDS011;5281;48.878;9.394;2024-02-28T01:08:50;21.77;;;15.53;;
10467;SDS011;5281;48.878;9.394;2024-02-28T01:11:16;21.53;;;15.13;;
10467;SDS011;5281;48.878;9.394;2024-02-28T01:13:43;21.27;;;14.87;;
10467;SDS011;5281;48.878;9.394;2024-02-28T01:16:10;20.10;;;15.80;;
10467;SDS011;5281;48.878;9.394;2024-02-28T01:18:36;20.03;;;14.53;;
10467;SDS011;5281;48.878;9.394;2024-02-28T01:21:03;19.80;;;14.77;;
10467;SDS011;5281;48.878;9.394;2024-02-28T01:23:30;19.07;;;14.43;;
10467;SDS011;5281;48.878;9.394;2024-02-28T01:25:58;18.77;;;15.03;;
10467;SDS011;5281;48.878;9.394;2024-02-28T01:28:28;20.17;;;14.10;;
10467;SDS011;5281;48.878;9.394;2024-02-28T01:30:54;18.83;;;14.30;;
10467;SDS011;5281;48.878;9.394;2024-02-28T01:33:21;18.73;;;13.87;;
10467;SDS011;5281;48.878;9.394;2024-02-28T01:35:48;18.20;;;14.67;;
10467;SDS011;5281;48.878;9.394;2024-02-28T01:38:14;18.90;;;14.57;;
10467;SDS011;5281;48.878;9.394;2024-02-28T01:40:43;20.40;;;14.60;;
10467;SDS011;5281;48.878;9.394;2024-02-28T01:43:12;19.03;;;14.83;;
10467;SDS011;5281;48.878;9.394;2024-02-28T01:45:39;18.70;;;14.20;;
10467;SDS011;5281;48.878;9.394;2024-02-28T01:48:06;19.10;;;14.27;;
10467;SDS011;5281;48.878;9.394;2024-02-28T01:50:35;22.67;;;14.73;;
10467;SDS011;5281;48.878;9.394;2024-02-28T01:53:02;20.73;;;14.77;;
10467;SDS011;5281;48.878;9.394;2024-02-28T01:55:30;18.47;;;14.43;;
10467;SDS011;5281;48.878;9.394;2024-02-28T01:57:57;19.20;;;14.40;;
10467;SDS011;5281;48.878;9.394;2024-02-28T02:00:25;19.30;;;15.13;;
10467;SDS011;5281;48.878;9.394;2024-02-28T02:02:54;21.80;;;15.23;;
10467;SDS011;5281;48.878;9.394;2024-02-28T02:05:21;18.70;;;14.43;;
10467;SDS011;5281;48.878;9.394;2024-02-28T02:07:48;20.50;;;14.33;;
10467;SDS011;5281;48.878;9.394;2024-02-28T02:10:15;20.30;;;14.80;;
10467;SDS011;5281;48.878;9.394;2024-02-28T02:12:41;21.20;;;15.13;;
10467;SDS011;5281;48.878;9.394;2024-02-28T02:15:08;19.53;;;14.47;;
10467;SDS011;5281;48.878;9.394;2024-02-28T02:17:36;18.10;;;13.67;;
10467;SDS011;5281;48.878;9.394;2024-02-28T02:20:03;19.90;;;14.73;;
10467;SDS011;5281;48.878;9.394;2024-02-28T02:22:34;22.60;;;15.60;;
10467;SDS011;5281;48.878;9.394;2024-02-28T02:25:02;19.37;;;13.93;;
10467;SDS011;5281;48.878;9.394;2024-02-28T02:27:29;19.10;;;13.97;;
10467;SDS011;5281;48.878;9.394;2024-02-28T02:29:56;19.87;;;14.37;;
10467;SDS011;5281;48.878;9.394;2024-02-28T02:32:22;23.10;;;15.57;;
10467;SDS011;5281;48.878;9.394;2024-02-28T02:34:49;19.30;;;14.37;;
10467;SDS011;5281;48.878;9.394;2024-02-28T02:37:16;20.37;;;15.50;;
10467;SDS011;5281;48.878;9.394;2024-02-28T02:39:44;22.10;;;15.63;;
10467;SDS011;5281;48.878;9.394;2024-02-28T02:42:10;22.57;;;17.03;;
10467;SDS011;5281;48.878;9.394;2024-02-28T02:44:39;21.97;;;16.17;;
10467;SDS011;5281;48.878;9.394;2024-02-28T02:47:06;21.83;;;15.60;;
10467;SDS011;5281;48.878;9.394;2024-02-28T02:49:33;23.27;;;16.03;;
10467;SDS011;5281;48.878;9.394;2024-02-28T02:51:59;21.30;;;15.60;;
10467;SDS011;5281;48.878;9.394;2024-02-28T02:54:26;22.53;;;15.60;;
10467;SDS011;5281;48.878;9.394;2024-02-28T02:56:54;21.80;;;16.47;;
10467;SDS011;5281;48.878;9.394;2024-02-28T02:59:21;20.40;;;14.77;;
10467;SDS011;5281;48.878;9.394;2024-02-28T03:01:48;19.77;;;14.97;;
10467;SDS011;5281;48.878;9.394;2024-02-28T03:04:15;19.50;;;14.93;;
10467;SDS011;5281;48.878;9.394;2024-02-28T03:06:42;20.50;;;15.40;;
10467;SDS011;5281;48.878;9.394;2024-02-28T03:09:08;19.27;;;14.33;;
10467;SDS011;5281;48.878;9.394;2024-02-28T03:11:35;20.77;;;15.40;;
10467;SDS011;5281;48.878;9.394;2024-02-28T03:14:03;19.67;;;15.03;;
10467;SDS011;5281;48.878;9.394;2024-02-28T03:16:30;21.53;;;15.70;;
10467;SDS011;5281;48.878;9.394;2024-02-28T03:18:56;21.67;;;15.33;;
10467;SDS011;5281;48.878;9.394;2024-02-28T03:21:23;22.90;;;16.70;;
10467;SDS011;5281;48.878;9.394;2024-02-28T03:23:49;20.83;;;16.13;;
10467;SDS011;5281;48.878;9.394;2024-02-28T03:26:15;21.40;;;15.30;;
10467;SDS011;5281;48.878;9.394;2024-02-28T03:28:42;23.63;;;15.97;;
10467;SDS011;5281;48.878;9.394;2024-02-28T03:31:10;20.27;;;15.20;;
10467;SDS011;5281;48.878;9.394;2024-02-28T03:33:37;21.63;;;16.10;;
10467;SDS011;5281;48.878;9.394;2024-02-28T03:36:03;20.67;;;15.77;;
10467;SDS011;5281;48.878;9.394;2024-02-28T03:38:30;21.77;;;16.53;;
10467;SDS011;5281;48.878;9.394;2024-02-28T03:40:57;21.70;;;16.17;;
10467;SDS011;5281;48.878;9.394;2024-02-28T03:43:24;21.30;;;15.73;;
10467;SDS011;5281;48.878;9.394;2024-02-28T03:45:50;22.80;;;16.57;;
10467;SDS011;5281;48.878;9.394;2024-02-28T03:48:18;21.43;;;15.83;;
10467;SDS011;5281;48.878;9.394;2024-02-28T03:50:45;24.20;;;16.60;;
10467;SDS011;5281;48.878;9.394;2024-02-28T03:53:12;24.20;;;16.67;;
10467;SDS011;5281;48.878;9.394;2024-02-28T03:55:39;20.47;;;15.93;;
10467;SDS011;5281;48.878;9.394;2024-02-28T03:58:05;22.57;;;16.70;;
10467;SDS011;5281;48.878;9.394;2024-02-28T04:00:33;19.57;;;15.47;;
10467;SDS011;5281;48.878;9.394;2024-02-28T04:03:00;22.80;;;16.30;;
10467;SDS011;5281;48.878;9.394;2024-02-28T04:05:29;24.87;;;16.40;;
10467;SDS011;5281;48.878;9.394;2024-02-28T04:07:55;21.93;;;16.17;;
10467;SDS011;5281;48.878;9.394;2024-02-28T04:10:22;21.53;;;16.13;;
10467;SDS011;5281;48.878;9.394;2024-02-28T04:12:49;23.07;;;15.73;;
10467;SDS011;5281;48.878;9.394;2024-02-28T04:15:15;26.53;;;18.73;;
10467;SDS011;5281;48.878;9.394;2024-02-28T04:17:42;23.77;;;15.77;;
10467;SDS011;5281;48.878;9.394;2024-02-28T04:20:09;23.07;;;16.40;;
10467;SDS011;5281;48.878;9.394;2024-02-28T04:22:38;21.77;;;16.13;;
10467;SDS011;5281;48.878;9.394;2024-02-28T04:25:05;21.13;;;15.77;;
10467;SDS011;5281;48.878;9.394;2024-02-28T04:27:32;22.30;;;15.67;;
10467;SDS011;5281;48.878;9.394;2024-02-28T04:29:59;21.43;;;15.13;;
10467;SDS011;5281;48.878;9.394;2024-02-28T04:32:26;22.17;;;15.73;;
10467;SDS011;5281;48.878;9.394;2024-02-28T04:34:52;23.20;;;16.70;;
10467;SDS011;5281;48.878;9.394;2024-02-28T04:37:19;21.67;;;16.47;;
10467;SDS011;5281;48.878;9.394;2024-02-28T04:39:48;24.37;;;16.60;;
10467;SDS011;5281;48.878;9.394;2024-02-28T04:42:15;21.70;;;15.73;;
10467;SDS011;5281;48.878;9.394;2024-02-28T04:44:42;22.40;;;16.70;;
10467;SDS011;5281;48.878;9.394;2024-02-28T04:47:08;22.97;;;17.03;;
10467;SDS011;5281;48.878;9.394;2024-02-28T04:49:36;22.90;;;17.33;;
10467;SDS011;5281;48.878;9.394;2024-02-28T04:52:03;24.53;;;17.37;;
10467;SDS011;5281;48.878;9.394;2024-02-28T04:54:30;23.73;;;16.23;;
10467;SDS011;5281;48.878;9.394;2024-02-28T04:56:58;23.73;;;16.40;;
10467;SDS011;5281;48.878;9.394;2024-02-28T04:59:25;22.20;;;16.63;;
10467;SDS011;5281;48.878;9.394;2024-02-28T05:01:52;24.30;;;16.33;;
10467;SDS011;5281;48.878;9.394;2024-02-28T05:04:18;24.97;;;16.80;;
10467;SDS011;5281;48.878;9.394;2024-02-28T05:06:46;24.10;;;16.67;;
10467;SDS011;5281;48.878;9.394;2024-02-28T05:09:12;24.40;;;17.40;;
10467;SDS011;5281;48.878;9.394;2024-02-28T05:11:39;21.70;;;16.07;;
10467;SDS011;5281;48.878;9.394;2024-02-28T05:14:08;23.20;;;16.23;;
10467;SDS011;5281;48.878;9.394;2024-02-28T05:16:36;23.37;;;16.60;;
10467;SDS011;5281;48.878;9.394;2024-02-28T05:19:03;22.93;;;16.87;;
10467;SDS011;5281;48.878;9.394;2024-02-28T05:21:30;23.80;;;17.47;;
10467;SDS011;5281;48.878;9.394;2024-02-28T05:23:56;23.93;;;16.50;;
10467;SDS011;5281;48.878;9.394;2024-02-28T05:26:23;22.43;;;16.23;;
10467;SDS011;5281;48.878;9.394;2024-02-28T05:28:50;20.63;;;15.37;;
10467;SDS011;5281;48.878;9.394;2024-02-28T05:31:21;21.50;;;16.07;;
10467;SDS011;5281;48.878;9.394;2024-02-28T05:33:50;23.03;;;16.20;;
10467;SDS011;5281;48.878;9.394;2024-02-28T05:36:17;20.63;;;15.60;;
10467;SDS011;5281;48.878;9.394;2024-02-28T05:38:44;22.20;;;16.47;;
10467;SDS011;5281;48.878;9.394;2024-02-28T05:41:10;23.20;;;15.97;;
10467;SDS011;5281;48.878;9.394;2024-02-28T05:43:37;25.07;;;17.20;;
10467;SDS011;5281;48.878;9.394;2024-02-28T05:46:04;23.23;;;17.00;;
10467;SDS011;5281;48.878;9.394;2024-02-28T05:48:32;22.90;;;15.77;;
10467;SDS011;5281;48.878;9.394;2024-02-28T05:51:00;22.93;;;15.97;;
10467;SDS011;5281;48.878;9.394;2024-02-28T05:53:27;24.87;;;17.00;;
10467;SDS011;5281;48.878;9.394;2024-02-28T05:55:57;21.40;;;14.93;;
10467;SDS011;5281;48.878;9.394;2024-02-28T05:58:24;16.47;;;13.37;;
10467;SDS011;5281;48.878;9.394;2024-02-28T06:00:51;20.93;;;13.27;;
10467;SDS011;5281;48.878;9.394;2024-02-28T06:03:17;17.83;;;12.33;;
10467;SDS011;5281;48.878;9.394;2024-02-28T06:05:46;17.23;;;12.40;;
10467;SDS011;5281;48.878;9.394;2024-02-28T06:08:13;17.17;;;13.07;;
10467;SDS011;5281;48.878;9.394;2024-02-28T06:10:40;17.67;;;13.17;;
10467;SDS011;5281;48.878;9.394;2024-02-28T06:13:07;16.70;;;12.80;;
10467;SDS011;5281;48.878;9.394;2024-02-28T06:15:34;15.57;;;12.30;;
10467;SDS011;5281;48.878;9.394;2024-02-28T06:18:00;16.53;;;12.10;;
10467;SDS011;5281;48.878;9.394;2024-02-28T06:20:27;15.47;;;11.80;;
10467;SDS011;5281;48.878;9.394;2024-02-28T06:22:55;17.60;;;12.43;;
10467;SDS011;5281;48.878;9.394;2024-02-28T06:25:22;15.40;;;12.47;;
10467;SDS011;5281;48.878;9.394;2024-02-28T06:27:49;16.93;;;12.30;;
10467;SDS011;5281;48.878;9.394;2024-02-28T06:30:16;17.13;;;12.40;;
10467;SDS011;5281;48.878;9.394;2024-02-28T06:32:43;16.73;;;13.17;;
10467;SDS011;5281;48.878;9.394;2024-02-28T06:35:09;16.17;;;12.20;;
10467;SDS011;5281;48.878;9.394;2024-02-28T06:37:36;17.77;;;12.47;;
10467;SDS011;5281;48.878;9.394;2024-02-28T06:40:05;18.03;;;12.50;;
10467;SDS011;5281;48.878;9.394;2024-02-28T06:42:33;19.50;;;13.50;;
10467;SDS011;5281;48.878;9.394;2024-02-28T06:45:01;17.33;;;13.13;;
10467;SDS011;5281;48.878;9.394;2024-02-28T06:47:29;17.23;;;12.10;;
10467;SDS011;5281;48.878;9.394;2024-02-28T06:49:57;19.63;;;13.97;;
10467;SDS011;5281;48.878;9.394;2024-02-28T06:52:24;19.47;;;13.57;;
10467;SDS011;5281;48.878;9.394;2024-02-28T06:54:50;17.97;;;13.40;;
10467;SDS011;5281;48.878;9.394;2024-02-28T06:57:18;16.30;;;12.73;;
10467;SDS011;5281;48.878;9.394;2024-02-28T06:59:45;17.47;;;12.67;;
10467;SDS011;5281;48.878;9.394;2024-02-28T07:02:12;19.77;;;13.77;;
10467;SDS011;5281;48.878;9.394;2024-02-28T07:04:39;18.83;;;12.20;;
10467;SDS011;5281;48.878;9.394;2024-02-28T07:07:05;16.73;;;12.60;;
10467;SDS011;5281;48.878;9.394;2024-02-28T07:09:31;17.80;;;13.93;;
10467;SDS011;5281;48.878;9.394;2024-02-28T07:11:58;18.93;;;13.30;;
10467;SDS011;5281;48.878;9.394;2024-02-28T07:14:27;21.70;;;15.90;;
10467;SDS011;5281;48.878;9.394;2024-02-28T07:16:53;17.40;;;12.77;;
10467;SDS011;5281;48.878;9.394;2024-02-28T07:19:20;20.10;;;14.00;;
10467;SDS011;5281;48.878;9.394;2024-02-28T07:21:47;20.93;;;15.27;;
10467;SDS011;5281;48.878;9.394;2024-02-28T07:24:14;22.27;;;13.90;;
10467;SDS011;5281;48.878;9.394;2024-02-28T07:26:40;18.33;;;13.40;;
10467;SDS011;5281;48.878;9.394;2024-02-28T07:29:07;18.13;;;13.17;;
10467;SDS011;5281;48.878;9.394;2024-02-28T07:31:35;17.80;;;12.47;;
10467;SDS011;5281;48.878;9.394;2024-02-28T07:34:02;17.77;;;13.63;;
10467;SDS011;5281;48.878;9.394;2024-02-28T07:36:29;16.30;;;13.40;;
10467;SDS011;5281;48.878;9.394;2024-02-28T07:38:56;22.20;;;15.90;;
10467;SDS011;5281;48.878;9.394;2024-02-28T07:41:23;18.47;;;13.73;;
10467;SDS011;5281;48.878;9.394;2024-02-28T07:43:49;15.57;;;11.77;;
10467;SDS011;5281;48.878;9.394;2024-02-28T07:46:16;18.63;;;12.17;;
10467;SDS011;5281;48.878;9.394;2024-02-28T07:48:44;14.57;;;11.03;;
10467;SDS011;5281;48.878;9.394;2024-02-28T07:51:10;14.47;;;11.07;;
10467;SDS011;5281;48.878;9.394;2024-02-28T07:53:37;14.13;;;11.13;;
10467;SDS011;5281;48.878;9.394;2024-02-28T07:56:05;37.83;;;25.50;;
10467;SDS011;5281;48.878;9.394;2024-02-28T07:58:31;17.30;;;13.37;;
10467;SDS011;5281;48.878;9.394;2024-02-28T08:00:58;15.40;;;11.43;;
10467;SDS011;5281;48.878;9.394;2024-02-28T08:03:25;14.30;;;11.77;;
10467;SDS011;5281;48.878;9.394;2024-02-28T08:05:53;16.53;;;11.67;;
10467;SDS011;5281;48.878;9.394;2024-02-28T08:08:20;16.13;;;11.73;;
10467;SDS011;5281;48.878;9.394;2024-02-28T08:10:46;18.40;;;11.57;;
10467;SDS011;5281;48.878;9.394;2024-02-28T08:13:14;15.20;;;11.80;;
10467;SDS011;5281;48.878;9.394;2024-02-28T08:15:40;15.53;;;11.30;;
10467;SDS011;5281;48.878;9.394;2024-02-28T08:18:07;15.30;;;11.33;;
10467;SDS011;5281;48.878;9.394;2024-02-28T08:20:36;17.43;;;12.00;;
10467;SDS011;5281;48.878;9.394;2024-02-28T08:23:04;13.17;;;11.33;;
10467;SDS011;5281;48.878;9.394;2024-02-28T08:25:30;16.93;;;11.73;;
10467;SDS011;5281;48.878;9.394;2024-02-28T08:27:57;15.53;;;11.90;;
10467;SDS011;5281;48.878;9.394;2024-02-28T08:30:24;13.67;;;10.70;;
10467;SDS011;5281;48.878;9.394;2024-02-28T08:32:51;18.10;;;12.47;;
10467;SDS011;5281;48.878;9.394;2024-02-28T08:35:17;15.83;;;12.27;;
10467;SDS011;5281;48.878;9.394;2024-02-28T08:37:44;18.10;;;13.40;;
10467;SDS011;5281;48.878;9.394;2024-02-28T08:40:12;16.70;;;11.83;;
10467;SDS011;5281;48.878;9.394;2024-02-28T08:42:39;15.03;;;11.80;;
10467;SDS011;5281;48.878;9.394;2024-02-28T08:45:06;16.83;;;12.03;;
10467;SDS011;5281;48.878;9.394;2024-02-28T08:47:34;16.00;;;12.40;;
10467;SDS011;5281;48.878;9.394;2024-02-28T08:50:00;17.97;;;12.80;;
10467;SDS011;5281;48.878;9.394;2024-02-28T08:52:27;16.93;;;12.93;;
10467;SDS011;5281;48.878;9.394;2024-02-28T08:54:54;19.27;;;12.27;;
10467;SDS011;5281;48.878;9.394;2024-02-28T08:57:22;17.50;;;12.40;;
10467;SDS011;5281;48.878;9.394;2024-02-28T08:59:49;15.80;;;12.33;;
10467;SDS011;5281;48.878;9.394;2024-02-28T09:02:15;17.23;;;13.07;;
10467;SDS011;5281;48.878;9.394;2024-02-28T09:04:42;19.53;;;12.43;;
10467;SDS011;5281;48.878;9.394;2024-02-28T09:07:09;16.60;;;12.27;;
10467;SDS011;5281;48.878;9.394;2024-02-28T09:09:40;18.37;;;12.43;;
10467;SDS011;5281;48.878;9.394;2024-02-28T09:12:08;17.90;;;13.30;;
10467;SDS011;5281;48.878;9.394;2024-02-28T09:14:36;22.00;;;15.97;;
10467;SDS011;5281;48.878;9.394;2024-02-28T09:17:03;20.80;;;14.27;;
10467;SDS011;5281;48.878;9.394;2024-02-28T09:19:30;20.50;;;14.40;;
10467;SDS011;5281;48.878;9.394;2024-02-28T09:21:57;20.60;;;13.97;;
10467;SDS011;5281;48.878;9.394;2024-02-28T09:24:24;21.27;;;14.50;;
10467;SDS011;5281;48.878;9.394;2024-02-28T09:26:51;19.00;;;13.40;;
10467;SDS011;5281;48.878;9.394;2024-02-28T09:29:18;21.43;;;14.40;;
10467;SDS011;5281;48.878;9.394;2024-02-28T09:31:46;22.30;;;15.17;;
10467;SDS011;5281;48.878;9.394;2024-02-28T09:34:13;20.87;;;14.63;;
10467;SDS011;5281;48.878;9.394;2024-02-28T09:36:40;19.23;;;14.37;;
10467;SDS011;5281;48.878;9.394;2024-02-28T09:39:07;21.07;;;14.20;;
10467;SDS011;5281;48.878;9.394;2024-02-28T09:41:34;21.70;;;15.07;;
10467;SDS011;5281;48.878;9.394;2024-02-28T09:44:01;22.10;;;15.00;;
10467;SDS011;5281;48.878;9.394;2024-02-28T09:46:28;23.00;;;14.83;;
10467;SDS011;5281;48.878;9.394;2024-02-28T09:48:57;20.33;;;15.23;;
10467;SDS011;5281;48.878;9.394;2024-02-28T09:51:25;26.33;;;15.87;;
10467;SDS011;5281;48.878;9.394;2024-02-28T09:53:52;23.60;;;15.57;;
10467;SDS011;5281;48.878;9.394;2024-02-28T09:56:19;24.03;;;15.27;;
10467;SDS011;5281;48.878;9.394;2024-02-28T09:58:48;23.90;;;15.47;;
10467;SDS011;5281;48.878;9.394;2024-02-28T10:01:15;22.73;;;14.67;;
10467;SDS011;5281;48.878;9.394;2024-02-28T10:03:43;21.67;;;15.00;;
10467;SDS011;5281;48.878;9.394;2024-02-28T10:06:12;26.43;;;16.93;;
10467;SDS011;5281;48.878;9.394;2024-02-28T10:08:40;22.20;;;15.97;;
10467;SDS011;5281;48.878;9.394;2024-02-28T10:11:07;25.77;;;16.53;;
10467;SDS011;5281;48.878;9.394;2024-02-28T10:13:34;24.37;;;16.13;;
10467;SDS011;5281;48.878;9.394;2024-02-28T10:16:02;23.40;;;14.60;;
10467;SDS011;5281;48.878;9.394;2024-02-28T10:18:32;23.97;;;16.07;;
10467;SDS011;5281;48.878;9.394;2024-02-28T10:20:59;23.43;;;15.60;;
10467;SDS011;5281;48.878;9.394;2024-02-28T10:23:27;27.93;;;17.20;;
10467;SDS011;5281;48.878;9.394;2024-02-28T10:25:54;27.40;;;15.97;;
10467;SDS011;5281;48.878;9.394;2024-02-28T10:28:21;23.17;;;15.17;;
10467;SDS011;5281;48.878;9.394;2024-02-28T10:30:47;23.30;;;14.57;;
10467;SDS011;5281;48.878;9.394;2024-02-28T10:33:14;22.00;;;14.53;;
10467;SDS011;5281;48.878;9.394;2024-02-28T10:35:41;23.40;;;14.77;;
10467;SDS011;5281;48.878;9.394;2024-02-28T10:38:10;26.43;;;15.57;;
10467;SDS011;5281;48.878;9.394;2024-02-28T10:40:38;21.47;;;14.63;;
10467;SDS011;5281;48.878;9.394;2024-02-28T10:43:07;21.90;;;14.53;;
10467;SDS011;5281;48.878;9.394;2024-02-28T10:45:34;19.63;;;13.93;;
10467;SDS011;5281;48.878;9.394;2024-02-28T10:48:02;25.27;;;16.07;;
10467;SDS011;5281;48.878;9.394;2024-02-28T10:50:30;48.97;;;26.93;;
10467;SDS011;5281;48.878;9.394;2024-02-28T10:52:58;57.90;;;28.37;;
10467;SDS011;5281;48.878;9.394;2024-02-28T10:55:27;36.90;;;23.80;;
10467;SDS011;5281;48.878;9.394;2024-02-28T10:58:01;19.53;;;14.10;;
10467;SDS011;5281;48.878;9.394;2024-02-28T11:00:29;18.27;;;13.03;;
10467;SDS011;5281;48.878;9.394;2024-02-28T11:02:57;19.87;;;13.30;;
10467;SDS011;5281;48.878;9.394;2024-02-28T11:05:34;20.27;;;13.27;;
10467;SDS011;5281;48.878;9.394;2024-02-28T11:08:01;19.77;;;13.33;;
10467;SDS011;5281;48.878;9.394;2024-02-28T11:10:30;19.60;;;13.10;;
10467;SDS011;5281;48.878;9.394;2024-02-28T11:12:58;20.33;;;12.87;;
10467;SDS011;5281;48.878;9.394;2024-02-28T11:15:26;17.43;;;12.00;;
10467;SDS011;5281;48.878;9.394;2024-02-28T11:17:53;19.57;;;13.57;;
10467;SDS011;5281;48.878;9.394;2024-02-28T11:20:20;19.37;;;12.33;;
10467;SDS011;5281;48.878;9.394;2024-02-28T11:22:47;20.27;;;12.93;;
10467;SDS011;5281;48.878;9.394;2024-02-28T11:25:14;19.07;;;12.47;;
10467;SDS011;5281;48.878;9.394;2024-02-28T11:27:47;19.97;;;12.37;;
10467;SDS011;5281;48.878;9.394;2024-02-28T11:30:14;21.63;;;13.20;;
10467;SDS011;5281;48.878;9.394;2024-02-28T11:32:42;17.50;;;12.27;;
10467;SDS011;5281;48.878;9.394;2024-02-28T11:35:09;17.40;;;11.60;;
10467;SDS011;5281;48.878;9.394;2024-02-28T11:37:37;18.67;;;12.37;;
10467;SDS011;5281;48.878;9.394;2024-02-28T11:40:06;19.43;;;12.57;;
10467;SDS011;5281;48.878;9.394;2024-02-28T11:42:34;18.70;;;11.73;;
10467;SDS011;5281;48.878;9.394;2024-02-28T11:45:01;22.63;;;15.33;;
10467;SDS011;5281;48.878;9.394;2024-02-28T11:47:30;22.67;;;13.10;;
10467;SDS011;5281;48.878;9.394;2024-02-28T11:49:59;19.07;;;12.30;;
10467;SDS011;5281;48.878;9.394;2024-02-28T11:52:26;19.07;;;12.77;;
10467;SDS011;5281;48.878;9.394;2024-02-28T11:54:53;21.10;;;13.80;;
10467;SDS011;5281;48.878;9.394;2024-02-28T11:57:20;19.40;;;12.33;;
10467;SDS011;5281;48.878;9.394;2024-02-28T11:59:47;17.87;;;12.00;;
10467;SDS011;5281;48.878;9.394;2024-02-28T12:02:14;21.10;;;13.63;;
10467;SDS011;5281;48.878;9.394;2024-02-28T12:04:41;20.17;;;13.20;;
10467;SDS011;5281;48.878;9.394;2024-02-28T12:07:09;16.27;;;11.70;;
10467;SDS011;5281;48.878;9.394;2024-02-28T12:09:36;19.10;;;12.40;;
10467;SDS011;5281;48.878;9.394;2024-02-28T12:12:04;18.37;;;13.13;;
10467;SDS011;5281;48.878;9.394;2024-02-28T12:14:36;17.77;;;12.07;;
10467;SDS011;5281;48.878;9.394;2024-02-28T12:17:03;17.97;;;13.00;;
10467;SDS011;5281;48.878;9.394;2024-02-28T12:19:30;15.93;;;11.37;;
10467;SDS011;5281;48.878;9.394;2024-02-28T12:21:57;18.23;;;11.77;;
10467;SDS011;5281;48.878;9.394;2024-02-28T12:24:26;16.37;;;11.27;;
10467;SDS011;5281;48.878;9.394;2024-02-28T12:26:53;18.03;;;11.27;;
10467;SDS011;5281;48.878;9.394;2024-02-28T12:29:19;19.67;;;12.70;;
10467;SDS011;5281;48.878;9.394;2024-02-28T12:31:46;18.50;;;12.17;;
10467;SDS011;5281;48.878;9.394;2024-02-28T12:34:13;17.13;;;12.07;;
10467;SDS011;5281;48.878;9.394;2024-02-28T12:36:40;16.77;;;12.37;;
10467;SDS011;5281;48.878;9.394;2024-02-28T12:39:06;18.30;;;12.93;;
10467;SDS011;5281;48.878;9.394;2024-02-28T12:41:37;16.07;;;11.63;;
10467;SDS011;5281;48.878;9.394;2024-02-28T12:44:04;15.60;;;11.43;;
10467;SDS011;5281;48.878;9.394;2024-02-28T12:46:31;14.97;;;10.87;;
10467;SDS011;5281;48.878;9.394;2024-02-28T12:48:59;15.53;;;11.17;;
10467;SDS011;5281;48.878;9.394;2024-02-28T12:51:36;15.80;;;11.57;;
10467;SDS011;5281;48.878;9.394;2024-02-28T12:54:03;14.27;;;11.17;;
10467;SDS011;5281;48.878;9.394;2024-02-28T12:56:30;15.00;;;11.33;;
10467;SDS011;5281;48.878;9.394;2024-02-28T12:58:59;15.27;;;11.67;;
10467;SDS011;5281;48.878;9.394;2024-02-28T13:01:26;13.30;;;10.30;;
10467;SDS011;5281;48.878;9.394;2024-02-28T13:03:53;16.07;;;10.90;;
10467;SDS011;5281;48.878;9.394;2024-02-28T13:06:20;14.20;;;10.57;;
10467;SDS011;5281;48.878;9.394;2024-02-28T13:08:46;17.40;;;12.30;;
10467;SDS011;5281;48.878;9.394;2024-02-28T13:11:16;16.10;;;11.53;;
10467;SDS011;5281;48.878;9.394;2024-02-28T13:13:44;16.53;;;11.47;;
10467;SDS011;5281;48.878;9.394;2024-02-28T13:16:12;15.73;;;11.70;;
10467;SDS011;5281;48.878;9.394;2024-02-28T13:18:39;17.00;;;11.40;;
10467;SDS011;5281;48.878;9.394;2024-02-28T13:21:05;13.77;;;11.03;;
10467;SDS011;5281;48.878;9.394;2024-02-28T13:23:32;15.53;;;10.63;;
10467;SDS011;5281;48.878;9.394;2024-02-28T13:25:59;16.57;;;12.17;;
10467;SDS011;5281;48.878;9.394;2024-02-28T13:28:26;14.80;;;11.10;;
10467;SDS011;5281;48.878;9.394;2024-02-28T13:30:55;15.90;;;10.90;;
10467;SDS011;5281;48.878;9.394;2024-02-28T13:33:23;18.13;;;11.70;;
10467;SDS011;5281;48.878;9.394;2024-02-28T13:35:50;14.57;;;10.83;;
10467;SDS011;5281;48.878;9.394;2024-02-28T13:38:17;17.67;;;10.67;;
10467;SDS011;5281;48.878;9.394;2024-02-28T13:40:45;15.87;;;11.13;;
10467;SDS011;5281;48.878;9.394;2024-02-28T13:43:12;16.07;;;11.23;;
10467;SDS011;5281;48.878;9.394;2024-02-28T13:45:39;14.67;;;11.03;;
10467;SDS011;5281;48.878;9.394;2024-02-28T13:48:14;12.83;;;9.90;;
10467;SDS011;5281;48.878;9.394;2024-02-28T13:50:43;13.73;;;10.10;;
10467;SDS011;5281;48.878;9.394;2024-02-28T13:53:10;13.90;;;10.43;;
10467;SDS011;5281;48.878;9.394;2024-02-28T13:55:37;15.83;;;10.87;;
10467;SDS011;5281;48.878;9.394;2024-02-28T13:58:04;14.63;;;11.17;;
10467;SDS011;5281;48.878;9.394;2024-02-28T14:00:31;13.57;;;9.50;;
10467;SDS011;5281;48.878;9.394;2024-02-28T14:02:59;25.87;;;19.13;;
10467;SDS011;5281;48.878;9.394;2024-02-28T14:05:26;31.57;;;21.70;;
10467;SDS011;5281;48.878;9.394;2024-02-28T14:07:54;16.00;;;11.07;;
10467;SDS011;5281;48.878;9.394;2024-02-28T14:10:22;19.53;;;14.37;;
10467;SDS011;5281;48.878;9.394;2024-02-28T14:12:48;14.17;;;11.47;;
10467;SDS011;5281;48.878;9.394;2024-02-28T14:15:17;13.17;;;10.23;;
10467;SDS011;5281;48.878;9.394;2024-02-28T14:17:44;15.70;;;10.90;;
10467;SDS011;5281;48.878;9.394;2024-02-28T14:20:11;13.80;;;11.03;;
10467;SDS011;5281;48.878;9.394;2024-02-28T14:22:38;15.80;;;11.57;;
10467;SDS011;5281;48.878;9.394;2024-02-28T14:25:08;10.23;;;8.20;;
10467;SDS011;5281;48.878;9.394;2024-02-28T14:27:38;10.40;;;8.43;;
10467;SDS011;5281;48.878;9.394;2024-02-28T14:30:05;9.67;;;7.90;;
10467;SDS011;5281;48.878;9.394;2024-02-28T14:32:33;22.63;;;17.07;;
10467;SDS011;5281;48.878;9.394;2024-02-28T14:35:00;36.73;;;28.93;;